createdAt,value
2023-06-19T00:00:14.107Z,100147.22
2023-06-19T00:01:17.710Z,100151.63
2023-06-19T00:02:20.457Z,100147.22
2023-06-19T00:03:23.190Z,100157.19
2023-06-19T00:04:27.742Z,100150.94
2023-06-19T00:05:30.692Z,100150.09
2023-06-19T00:06:33.416Z,100149.22
2023-06-19T00:07:37.594Z,100155.66
2023-06-19T00:08:42.522Z,100146.53
2023-06-19T00:09:45.240Z,100146.69
2023-06-19T00:10:49.434Z,100144.84
2023-06-19T00:11:52.169Z,100147.53
2023-06-19T00:12:54.886Z,100140.47
2023-06-19T00:13:57.634Z,100147.72
2023-06-19T00:15:00.514Z,100141.47
2023-06-19T00:16:03.308Z,100144.19
2023-06-19T00:17:06.949Z,100147.91
2023-06-19T00:18:11.178Z,100149.56
2023-06-19T00:19:14.230Z,100146.22
2023-06-19T00:20:16.966Z,100148.91
2023-06-19T00:21:19.688Z,100151.59
2023-06-19T00:22:22.736Z,100149.09
2023-06-19T00:23:25.461Z,100149.94
2023-06-19T00:24:28.241Z,100150.91
2023-06-19T00:25:31.028Z,100151.94
2023-06-19T00:26:34.128Z,100144.66
2023-06-19T00:27:36.865Z,100155.47
2023-06-19T00:28:40.358Z,100157.31
2023-06-19T00:29:43.084Z,100152.94
2023-06-19T00:30:45.957Z,100149.41
2023-06-19T00:31:50.306Z,100149.56
2023-06-19T00:32:54.387Z,100148.56
2023-06-19T00:33:58.082Z,100145.84
2023-06-19T00:35:02.113Z,100141.47
2023-06-19T00:36:10.957Z,100148.72
2023-06-19T00:37:14.512Z,100151.44
2023-06-19T00:38:17.352Z,100142.47
2023-06-19T00:39:20.109Z,100140.78
2023-06-19T00:40:29.257Z,100138.94
2023-06-19T00:41:33.762Z,100139.94
2023-06-19T00:42:36.497Z,100140.78
2023-06-19T00:43:39.234Z,100147.19
2023-06-19T00:44:41.958Z,100136.38
2023-06-19T00:45:44.762Z,100141.09
2023-06-19T00:46:47.933Z,100143.63
2023-06-19T00:47:51.774Z,100140.09
2023-06-19T00:48:54.723Z,100128.44
2023-06-19T00:49:57.474Z,100132.16
2023-06-19T00:51:01.131Z,100134.69
2023-06-19T00:52:03.984Z,100130.47
2023-06-19T00:53:08.873Z,100140.28
2023-06-19T00:54:12.046Z,100136.72
2023-06-19T00:55:17.157Z,100129.63
2023-06-19T00:56:19.952Z,100131.50
2023-06-19T00:57:23.325Z,100137.75
2023-06-19T00:58:26.450Z,100128.78
2023-06-19T00:59:30.690Z,100126.09
2023-06-19T01:00:33.458Z,100127.09
2023-06-19T01:01:36.281Z,100127.09
2023-06-19T01:02:39.581Z,100130.81
2023-06-19T01:03:42.717Z,100129.81
2023-06-19T01:04:47.049Z,100128.13
2023-06-19T01:05:52.890Z,100125.44
2023-06-19T01:07:03.844Z,100129.97
2023-06-19T01:08:12.100Z,100128.25
2023-06-19T01:09:18.334Z,100123.88
2023-06-19T01:10:29.445Z,100121.19
2023-06-19T01:11:42.025Z,100124.72
2023-06-19T01:12:58.094Z,100126.59
2023-06-19T01:14:09.486Z,100128.44
2023-06-19T01:15:13.801Z,100131.97
2023-06-19T01:16:18.766Z,100131.97
2023-06-19T01:17:22.950Z,100126.75
2023-06-19T01:18:28.132Z,100130.28
2023-06-19T01:19:31.782Z,100134.00
2023-06-19T01:20:34.835Z,100126.94
2023-06-19T01:21:38.214Z,100129.63
2023-06-19T01:22:40.936Z,100126.94
2023-06-19T01:23:44.691Z,100129.63
2023-06-19T01:24:47.404Z,100132.31
2023-06-19T01:25:50.163Z,100124.41
2023-06-19T01:26:53.164Z,100117.16
2023-06-19T01:27:57.781Z,100112.75
2023-06-19T01:29:00.673Z,100114.59
2023-06-19T01:30:05.343Z,100111.03
2023-06-19T01:31:23.604Z,100108.34
2023-06-19T01:32:57.855Z,100111.88
2023-06-19T01:34:05.211Z,100111.03
2023-06-19T01:35:10.448Z,100111.03
2023-06-19T01:36:15.782Z,100104.75
2023-06-19T01:37:19.014Z,100106.47
2023-06-19T01:38:26.657Z,100109.31
2023-06-19T01:39:31.458Z,100106.63
2023-06-19T01:40:35.243Z,100109.31
2023-06-19T01:41:40.840Z,100113.03
2023-06-19T01:42:44.798Z,100111.34
2023-06-19T01:43:48.581Z,100117.59
2023-06-19T01:44:52.278Z,100114.91
2023-06-19T01:45:55.122Z,100111.34
2023-06-19T01:46:57.952Z,100105.09
2023-06-19T01:48:01.160Z,100098.03
2023-06-19T01:49:07.838Z,100105.09
2023-06-19T01:50:12.375Z,100110.50
2023-06-19T01:51:15.240Z,100106.97
2023-06-19T01:52:17.998Z,100106.13
2023-06-19T01:53:20.802Z,100106.97
2023-06-19T01:54:23.573Z,100109.84
2023-06-19T01:55:26.739Z,100104.44
2023-06-19T01:56:29.575Z,100104.44
2023-06-19T01:57:33.184Z,100110.81
2023-06-19T01:58:35.937Z,100108.13
2023-06-19T01:59:38.672Z,100111.69
2023-06-19T02:00:41.539Z,100104.59
2023-06-19T02:01:44.282Z,100111.69
2023-06-19T02:02:47.186Z,100104.59
2023-06-19T02:03:50.138Z,100104.59
2023-06-19T02:04:52.941Z,100107.28
2023-06-19T02:05:55.673Z,100105.59
2023-06-19T02:06:58.428Z,100111.00
2023-06-19T02:08:01.166Z,100108.28
2023-06-19T02:09:03.911Z,100116.41
2023-06-19T02:10:07.642Z,100111.00
2023-06-19T02:11:10.357Z,100118.25
2023-06-19T02:12:13.089Z,100115.72
2023-06-19T02:13:15.826Z,100119.25
2023-06-19T02:14:18.845Z,100111.16
2023-06-19T02:15:23.508Z,100115.72
2023-06-19T02:16:26.296Z,100123.81
2023-06-19T02:17:29.163Z,100121.13
2023-06-19T02:18:33.763Z,100117.56
2023-06-19T02:19:36.532Z,100114.03
2023-06-19T02:20:40.115Z,100114.03
2023-06-19T02:21:42.828Z,100112.19
2023-06-19T02:22:45.646Z,100115.91
2023-06-19T02:23:48.374Z,100118.59
2023-06-19T02:24:51.106Z,100112.34
2023-06-19T02:25:53.925Z,100115.06
2023-06-19T02:26:56.663Z,100116.06
2023-06-19T02:28:01.427Z,100116.06
2023-06-19T02:29:04.735Z,100121.47
2023-06-19T02:30:07.984Z,100120.59
2023-06-19T02:31:11.102Z,100121.47
2023-06-19T02:32:14.461Z,100117.88
2023-06-19T02:33:17.192Z,100118.06
2023-06-19T02:34:19.934Z,100118.06
2023-06-19T02:35:23.594Z,100115.38
2023-06-19T02:36:27.085Z,100117.22
2023-06-19T02:37:30.891Z,100124.47
2023-06-19T02:38:33.600Z,100116.38
2023-06-19T02:39:36.342Z,100122.63
2023-06-19T02:40:39.572Z,100127.19
2023-06-19T02:41:46.841Z,100125.50
2023-06-19T02:42:49.611Z,100127.34
2023-06-19T02:43:52.343Z,100129.03
2023-06-19T02:44:55.109Z,100130.03
2023-06-19T02:45:57.942Z,100133.75
2023-06-19T02:47:00.738Z,100128.34
2023-06-19T02:48:03.651Z,100129.19
2023-06-19T02:49:08.924Z,100135.44
2023-06-19T02:50:11.676Z,100140.00
2023-06-19T02:51:14.476Z,100137.47
2023-06-19T02:52:17.216Z,100132.91
2023-06-19T02:53:19.945Z,100130.22
2023-06-19T02:54:22.704Z,100127.50
2023-06-19T02:55:25.425Z,100128.53
2023-06-19T02:56:29.849Z,100133.09
2023-06-19T02:57:32.610Z,100130.38
2023-06-19T02:58:35.620Z,100133.94
2023-06-19T02:59:38.361Z,100146.56
2023-06-19T03:00:41.153Z,100140.31
2023-06-19T03:01:44.009Z,100139.31
2023-06-19T03:02:49.925Z,100139.31
2023-06-19T03:03:53.524Z,100136.75
2023-06-19T03:04:56.278Z,100134.06
2023-06-19T03:06:02.214Z,100134.91
2023-06-19T03:07:05.381Z,100131.38
2023-06-19T03:08:08.208Z,100135.91
2023-06-19T03:09:13.347Z,100128.84
2023-06-19T03:10:16.164Z,100127.81
2023-06-19T03:11:19.214Z,100132.38
2023-06-19T03:12:21.991Z,100135.06
2023-06-19T03:13:24.788Z,100135.91
2023-06-19T03:14:27.548Z,100135.06
2023-06-19T03:15:30.276Z,100135.91
2023-06-19T03:16:33.038Z,100128.00
2023-06-19T03:17:35.845Z,100129.84
2023-06-19T03:18:40.037Z,100128.84
2023-06-19T03:19:42.859Z,100129.00
2023-06-19T03:20:45.584Z,100124.44
2023-06-19T03:21:48.321Z,100138.78
2023-06-19T03:22:51.545Z,100132.56
2023-06-19T03:23:54.583Z,100136.25
2023-06-19T03:24:59.823Z,100136.25
2023-06-19T03:26:02.549Z,100130.88
2023-06-19T03:27:05.705Z,100132.72
2023-06-19T03:28:08.447Z,100133.72
2023-06-19T03:29:11.775Z,100126.47
2023-06-19T03:30:27.489Z,100132.88
2023-06-19T03:31:30.220Z,100137.28
2023-06-19T03:32:34.676Z,100131.03
2023-06-19T03:33:38.224Z,100128.34
2023-06-19T03:34:41.055Z,100130.19
2023-06-19T03:35:45.405Z,100131.03
2023-06-19T03:37:04.980Z,100132.88
2023-06-19T03:38:08.308Z,100128.47
2023-06-19T03:39:11.662Z,100126.66
2023-06-19T03:40:15.433Z,100131.19
2023-06-19T03:41:20.894Z,100130.19
2023-06-19T03:42:24.018Z,100128.47
2023-06-19T03:43:26.938Z,100131.19
2023-06-19T03:44:29.769Z,100126.66
2023-06-19T03:45:32.642Z,100125.78
2023-06-19T03:46:35.494Z,100127.63
2023-06-19T03:47:38.698Z,100128.47
2023-06-19T03:48:42.510Z,100136.56
2023-06-19T03:49:45.307Z,100136.56
2023-06-19T03:50:48.079Z,100139.28
2023-06-19T03:51:50.896Z,100135.72
2023-06-19T03:52:53.678Z,100139.28
2023-06-19T03:53:56.728Z,100135.72
2023-06-19T03:54:59.531Z,100133.03
2023-06-19T03:56:02.415Z,100134.75
2023-06-19T03:57:05.514Z,100139.28
2023-06-19T03:58:08.246Z,100137.44
2023-06-19T03:59:10.983Z,100139.28
2023-06-19T04:00:16.222Z,100137.44
2023-06-19T04:01:19.453Z,100139.28
2023-06-19T04:02:22.263Z,100137.44
2023-06-19T04:03:25.024Z,100130.34
2023-06-19T04:04:27.804Z,100141.13
2023-06-19T04:05:32.045Z,100139.28
2023-06-19T04:06:35.053Z,100138.44
2023-06-19T04:07:37.923Z,100141.00
2023-06-19T04:08:42.181Z,100141.13
2023-06-19T04:09:48.460Z,100139.28
2023-06-19T04:10:51.350Z,100138.44
2023-06-19T04:11:54.117Z,100139.28
2023-06-19T04:12:57.584Z,100144.66
2023-06-19T04:14:00.360Z,100139.28
2023-06-19T04:15:03.097Z,100144.66
2023-06-19T04:16:05.895Z,100140.16
2023-06-19T04:17:08.688Z,100136.56
2023-06-19T04:18:11.796Z,100137.59
2023-06-19T04:19:14.518Z,100138.28
2023-06-19T04:20:17.299Z,100137.59
2023-06-19T04:21:22.933Z,100141.13
2023-06-19T04:22:25.684Z,100137.44
2023-06-19T04:23:28.400Z,100134.88
2023-06-19T04:24:31.199Z,100137.59
2023-06-19T04:25:33.968Z,100127.63
2023-06-19T04:26:37.950Z,100137.59
2023-06-19T04:27:41.081Z,100137.59
2023-06-19T04:28:43.809Z,100135.72
2023-06-19T04:29:46.565Z,100139.28
2023-06-19T04:30:49.289Z,100131.19
2023-06-19T04:31:52.015Z,100137.44
2023-06-19T04:32:54.934Z,100133.03
2023-06-19T04:33:57.875Z,100127.63
2023-06-19T04:35:00.630Z,100138.28
2023-06-19T04:36:03.401Z,100141.97
2023-06-19T04:37:06.434Z,100134.75
2023-06-19T04:38:10.243Z,100135.59
2023-06-19T04:39:13.002Z,100133.03
2023-06-19T04:40:15.724Z,100131.19
2023-06-19T04:41:18.740Z,100130.19
2023-06-19T04:42:21.871Z,100132.06
2023-06-19T04:43:26.008Z,100133.88
2023-06-19T04:44:31.148Z,100131.19
2023-06-19T04:45:33.938Z,100132.06
2023-06-19T04:46:38.959Z,100134.75
2023-06-19T04:47:52.533Z,100135.59
2023-06-19T04:48:56.719Z,100132.88
2023-06-19T04:49:59.478Z,100129.34
2023-06-19T04:51:02.786Z,100134.56
2023-06-19T04:52:05.650Z,100138.28
2023-06-19T04:53:08.389Z,100139.97
2023-06-19T04:54:11.128Z,100135.59
2023-06-19T04:55:13.865Z,100142.84
2023-06-19T04:56:17.004Z,100145.38
2023-06-19T04:57:19.740Z,100143.50
2023-06-19T04:58:23.322Z,100139.97
2023-06-19T04:59:26.088Z,100142.66
2023-06-19T05:00:28.836Z,100144.34
2023-06-19T05:01:31.967Z,100148.06
2023-06-19T05:02:35.211Z,100150.59
2023-06-19T05:03:38.089Z,100149.75
2023-06-19T05:04:44.102Z,100151.44
2023-06-19T05:05:47.057Z,100149.75
2023-06-19T05:06:52.825Z,100155.81
2023-06-19T05:07:55.575Z,100156.84
2023-06-19T05:08:58.595Z,100148.75
2023-06-19T05:10:01.341Z,100154.13
2023-06-19T05:11:04.102Z,100149.59
2023-06-19T05:12:06.971Z,100154.97
2023-06-19T05:13:09.695Z,100151.28
2023-06-19T05:14:12.577Z,100157.69
2023-06-19T05:15:15.322Z,100153.97
2023-06-19T05:16:20.957Z,100153.97
2023-06-19T05:17:23.797Z,100153.97
2023-06-19T05:18:26.660Z,100155.66
2023-06-19T05:19:29.383Z,100157.50
2023-06-19T05:20:32.117Z,100153.97
2023-06-19T05:21:34.850Z,100158.34
2023-06-19T05:22:38.297Z,100156.50
2023-06-19T05:23:41.131Z,100152.97
2023-06-19T05:24:43.935Z,100164.59
2023-06-19T05:25:46.690Z,100163.63
2023-06-19T05:26:49.419Z,100164.59
2023-06-19T05:27:52.142Z,100163.63
2023-06-19T05:28:54.849Z,100160.22
2023-06-19T05:29:57.579Z,100163.63
2023-06-19T05:31:00.325Z,100178.09
2023-06-19T05:32:03.381Z,100173.41
2023-06-19T05:33:06.133Z,100173.41
2023-06-19T05:34:09.165Z,100175.25
2023-06-19T05:35:14.524Z,100168.00
2023-06-19T05:36:19.199Z,100175.25
2023-06-19T05:37:23.275Z,100169.84
2023-06-19T05:38:27.104Z,100166.16
2023-06-19T05:39:29.859Z,100166.16
2023-06-19T05:40:32.585Z,100167.81
2023-06-19T05:41:35.536Z,100160.56
2023-06-19T05:42:38.429Z,100170.34
2023-06-19T05:43:41.147Z,100169.50
2023-06-19T05:44:43.868Z,100162.25
2023-06-19T05:45:46.624Z,100166.66
2023-06-19T05:46:49.379Z,100164.78
2023-06-19T05:47:52.150Z,100162.94
2023-06-19T05:48:55.821Z,100160.22
2023-06-19T05:49:59.095Z,100162.94
2023-06-19T05:51:01.823Z,100160.94
2023-06-19T05:52:05.026Z,100165.50
2023-06-19T05:53:07.813Z,100165.31
2023-06-19T05:54:10.923Z,100164.31
2023-06-19T05:55:13.783Z,100167.00
2023-06-19T05:56:17.275Z,100167.69
2023-06-19T05:57:22.192Z,100172.25
2023-06-19T05:58:26.787Z,100167.69
2023-06-19T05:59:29.580Z,100174.75
2023-06-19T06:00:33.238Z,100171.94
2023-06-19T06:01:36.017Z,100164.69
2023-06-19T06:02:38.803Z,100175.31
2023-06-19T06:03:41.569Z,100168.03
2023-06-19T06:04:44.517Z,100177.84
2023-06-19T06:05:50.018Z,100173.28
2023-06-19T06:06:52.757Z,100184.78
2023-06-19T06:07:56.426Z,100182.97
2023-06-19T06:08:59.150Z,100183.78
2023-06-19T06:10:01.889Z,100183.63
2023-06-19T06:11:04.689Z,100183.47
2023-06-19T06:12:07.896Z,100184.28
2023-06-19T06:13:10.874Z,100182.28
2023-06-19T06:14:13.781Z,100182.28
2023-06-19T06:15:17.064Z,100181.13
2023-06-19T06:16:19.837Z,100189.22
2023-06-19T06:17:22.618Z,100181.13
2023-06-19T06:18:25.342Z,100184.50
2023-06-19T06:19:28.080Z,100178.25
2023-06-19T06:20:30.816Z,100187.84
2023-06-19T06:21:33.556Z,100188.69
2023-06-19T06:22:36.296Z,100188.69
2023-06-19T06:23:39.027Z,100182.28
2023-06-19T06:24:41.828Z,100184.84
2023-06-19T06:25:46.785Z,100190.25
2023-06-19T06:26:49.511Z,100190.91
2023-06-19T06:27:52.543Z,100190.91
2023-06-19T06:28:56.369Z,100190.91
2023-06-19T06:29:59.142Z,100189.72
2023-06-19T06:31:02.014Z,100179.94
2023-06-19T06:32:07.055Z,100180.63
2023-06-19T06:33:09.810Z,100193.13
2023-06-19T06:34:12.536Z,100189.41
2023-06-19T06:35:18.269Z,100192.13
2023-06-19T06:36:33.808Z,100186.72
2023-06-19T06:37:38.142Z,100188.41
2023-06-19T06:38:40.877Z,100193.63
2023-06-19T06:39:43.613Z,100201.56
2023-06-19T06:40:46.357Z,100189.91
2023-06-19T06:41:49.085Z,100191.59
2023-06-19T06:42:51.814Z,100187.03
2023-06-19T06:43:56.521Z,100194.16
2023-06-19T06:44:59.298Z,100193.31
2023-06-19T06:46:02.076Z,100198.56
2023-06-19T06:47:04.867Z,100198.56
2023-06-19T06:48:08.346Z,100190.44
2023-06-19T06:49:12.351Z,100201.09
2023-06-19T06:50:15.073Z,100196.53
2023-06-19T06:51:17.873Z,100193.81
2023-06-19T06:52:20.619Z,100191.13
2023-06-19T06:53:23.333Z,100192.81
2023-06-19T06:54:26.187Z,100190.09
2023-06-19T06:55:28.937Z,100197.19
2023-06-19T06:56:31.711Z,100192.63
2023-06-19T06:57:34.468Z,100193.47
2023-06-19T06:58:37.354Z,100194.34
2023-06-19T06:59:40.088Z,100196.03
2023-06-19T07:00:42.811Z,100199.59
2023-06-19T07:01:45.821Z,100194.19
2023-06-19T07:02:51.516Z,100201.25
2023-06-19T07:03:55.617Z,100197.56
2023-06-19T07:04:58.446Z,100197.38
2023-06-19T07:06:01.432Z,100201.94
2023-06-19T07:07:06.299Z,100197.19
2023-06-19T07:08:09.065Z,100196.34
2023-06-19T07:09:12.707Z,100200.59
2023-06-19T07:10:15.484Z,100189.78
2023-06-19T07:11:18.222Z,100197.72
2023-06-19T07:12:21.181Z,100189.63
2023-06-19T07:13:24.331Z,100193.00
2023-06-19T07:14:27.056Z,100185.72
2023-06-19T07:15:29.779Z,100183.88
2023-06-19T07:16:32.540Z,100185.56
2023-06-19T07:17:35.316Z,100180.00
2023-06-19T07:18:39.862Z,100196.06
2023-06-19T07:19:42.693Z,100186.09
2023-06-19T07:20:45.441Z,100194.03
2023-06-19T07:21:48.361Z,100189.44
2023-06-19T07:22:53.695Z,100183.03
2023-06-19T07:23:57.218Z,100189.97
2023-06-19T07:24:59.998Z,100190.81
2023-06-19T07:26:02.723Z,100193.34
2023-06-19T07:27:05.792Z,100187.94
2023-06-19T07:28:08.562Z,100191.31
2023-06-19T07:29:11.292Z,100194.84
2023-06-19T07:30:16.538Z,100189.47
2023-06-19T07:31:20.037Z,100195.56
2023-06-19T07:32:23.371Z,100194.53
2023-06-19T07:33:26.300Z,100195.22
2023-06-19T07:34:29.345Z,100189.81
2023-06-19T07:35:32.094Z,100183.41
2023-06-19T07:36:34.829Z,100187.81
2023-06-19T07:37:37.557Z,100189.53
2023-06-19T07:38:40.274Z,100187.47
2023-06-19T07:39:44.887Z,100192.88
2023-06-19T07:40:47.687Z,100192.72
2023-06-19T07:41:50.407Z,100181.91
2023-06-19T07:42:53.168Z,100191.53
2023-06-19T07:43:55.888Z,100184.25
2023-06-19T07:44:58.629Z,100187.78
2023-06-19T07:46:01.544Z,100191.38
2023-06-19T07:47:04.412Z,100182.25
2023-06-19T07:48:07.261Z,100186.63
2023-06-19T07:49:10.042Z,100196.44
2023-06-19T07:50:12.770Z,100183.75
2023-06-19T07:51:15.509Z,100184.41
2023-06-19T07:52:18.244Z,100190.66
2023-06-19T07:53:21.198Z,100187.81
2023-06-19T07:54:23.912Z,100189.50
2023-06-19T07:55:26.627Z,100186.63
2023-06-19T07:56:29.701Z,100188.31
2023-06-19T07:57:32.443Z,100195.41
2023-06-19T07:58:35.182Z,100190.69
2023-06-19T07:59:37.929Z,100190.69
2023-06-19T08:00:40.651Z,100197.59
2023-06-19T08:01:43.583Z,100192.19
2023-06-19T08:02:46.456Z,100200.97
2023-06-19T08:03:49.453Z,100191.84
2023-06-19T08:04:52.422Z,100197.13
2023-06-19T08:05:55.162Z,100186.13
2023-06-19T08:06:57.874Z,100195.91
2023-06-19T08:08:00.997Z,100189.50
2023-06-19T08:09:04.979Z,100192.00
2023-06-19T08:10:27.339Z,100186.59
2023-06-19T08:11:30.771Z,100180.03
2023-06-19T08:12:33.689Z,100187.13
2023-06-19T08:13:36.414Z,100186.28
2023-06-19T08:14:39.785Z,100178.00
2023-06-19T08:15:42.555Z,100180.50
2023-06-19T08:16:45.343Z,100180.50
2023-06-19T08:17:49.177Z,100185.75
2023-06-19T08:18:51.927Z,100185.75
2023-06-19T08:19:54.649Z,100190.97
2023-06-19T08:20:57.378Z,100187.44
2023-06-19T08:22:00.184Z,100190.84
2023-06-19T08:23:05.079Z,100195.41
2023-06-19T08:24:09.220Z,100183.56
2023-06-19T08:25:12.245Z,100194.38
2023-06-19T08:26:15.006Z,100181.69
2023-06-19T08:27:17.848Z,100184.03
2023-06-19T08:28:20.593Z,100186.09
2023-06-19T08:29:24.076Z,100183.19
2023-06-19T08:30:27.649Z,100182.19
2023-06-19T08:31:30.823Z,100185.72
2023-06-19T08:32:34.338Z,100179.34
2023-06-19T08:33:37.094Z,100182.88
2023-06-19T08:34:39.828Z,100184.56
2023-06-19T08:35:42.591Z,100191.66
2023-06-19T08:36:45.334Z,100177.09
2023-06-19T08:37:48.094Z,100177.94
2023-06-19T08:38:51.588Z,100183.19
2023-06-19T08:39:54.334Z,100187.75
2023-06-19T08:40:57.091Z,100187.56
2023-06-19T08:41:59.837Z,100180.31
2023-06-19T08:43:02.641Z,100179.31
2023-06-19T08:44:06.313Z,100183.69
2023-06-19T08:45:09.945Z,100175.56
2023-06-19T08:46:19.488Z,100178.94
2023-06-19T08:47:31.053Z,100180.63
2023-06-19T08:48:37.184Z,100178.75
2023-06-19T08:49:40.598Z,100189.44
2023-06-19T08:50:43.326Z,100187.63
2023-06-19T08:51:46.119Z,100179.50
2023-06-19T08:52:48.936Z,100183.03
2023-06-19T08:53:56.711Z,100182.88
2023-06-19T08:54:59.471Z,100185.38
2023-06-19T08:56:03.273Z,100179.97
2023-06-19T08:57:07.376Z,100182.50
2023-06-19T08:58:11.934Z,100177.94
2023-06-19T08:59:18.905Z,100186.75
2023-06-19T09:00:34.001Z,100180.31
2023-06-19T09:01:37.421Z,100176.59
2023-06-19T09:02:57.705Z,100187.41
2023-06-19T09:04:14.059Z,100183.69
2023-06-19T09:05:19.543Z,100178.91
2023-06-19T09:06:22.418Z,100181.81
2023-06-19T09:07:25.298Z,100184.19
2023-06-19T09:08:28.124Z,100185.03
2023-06-19T09:09:34.128Z,100182.97
2023-06-19T09:10:36.947Z,100178.41
2023-06-19T09:11:44.345Z,100180.94
2023-06-19T09:13:05.036Z,100180.75
2023-06-19T09:14:07.815Z,100182.47
2023-06-19T09:15:16.967Z,100180.75
2023-06-19T09:16:19.912Z,100183.31
2023-06-19T09:17:22.938Z,100186.69
2023-06-19T09:18:31.777Z,100183.13
2023-06-19T09:19:38.385Z,100183.78
2023-06-19T09:20:45.941Z,100185.47
2023-06-19T09:21:48.806Z,100180.91
2023-06-19T09:22:56.608Z,100184.44
2023-06-19T09:24:07.286Z,100182.59
2023-06-19T09:25:11.521Z,100186.00
2023-06-19T09:26:18.964Z,100186.81
2023-06-19T09:27:21.886Z,100177.69
2023-06-19T09:28:26.858Z,100177.69
2023-06-19T09:29:30.084Z,100184.59
2023-06-19T09:30:32.797Z,100181.88
2023-06-19T09:31:35.607Z,100178.16
2023-06-19T09:32:38.376Z,100178.16
2023-06-19T09:33:41.870Z,100178.84
2023-06-19T09:34:44.873Z,100174.28
2023-06-19T09:35:50.391Z,100182.41
2023-06-19T09:36:53.100Z,100173.25
2023-06-19T09:37:57.031Z,100181.19
2023-06-19T09:39:01.090Z,100168.50
2023-06-19T09:40:11.731Z,100170.38
2023-06-19T09:41:17.595Z,100166.63
2023-06-19T09:42:30.564Z,100176.44
2023-06-19T09:43:45.035Z,100171.88
2023-06-19T09:44:52.541Z,100170.88
2023-06-19T09:45:57.373Z,100158.19
2023-06-19T09:47:10.471Z,100168.81
2023-06-19T09:48:18.511Z,100169.66
2023-06-19T09:49:35.445Z,100161.34
2023-06-19T09:50:40.645Z,100172.19
2023-06-19T09:51:44.641Z,100161.34
2023-06-19T09:52:47.394Z,100162.19
2023-06-19T09:53:52.073Z,100175.56
2023-06-19T09:54:56.739Z,100171.16
2023-06-19T09:55:59.465Z,100167.28
2023-06-19T09:57:04.311Z,100155.59
2023-06-19T09:58:07.824Z,100160.84
2023-06-19T09:59:11.290Z,100155.41
2023-06-19T10:00:23.607Z,100157.28
2023-06-19T10:01:29.576Z,100156.25
2023-06-19T10:02:32.765Z,100155.25
2023-06-19T10:03:37.572Z,100153.56
2023-06-19T10:04:47.955Z,100156.25
2023-06-19T10:05:59.084Z,100152.53
2023-06-19T10:07:02.246Z,100155.25
2023-06-19T10:08:06.099Z,100152.53
2023-06-19T10:09:11.093Z,100157.94
2023-06-19T10:10:28.566Z,100151.69
2023-06-19T10:11:49.358Z,100150.66
2023-06-19T10:12:52.397Z,100146.09
2023-06-19T10:13:55.544Z,100139.00
2023-06-19T10:14:58.281Z,100143.38
2023-06-19T10:16:01.637Z,100134.41
2023-06-19T10:17:10.335Z,100142.34
2023-06-19T10:18:17.777Z,100133.38
2023-06-19T10:19:23.115Z,100140.50
2023-06-19T10:20:34.176Z,100139.50
2023-06-19T10:21:50.213Z,100142.19
2023-06-19T10:23:14.739Z,100139.50
2023-06-19T10:24:20.854Z,100134.06
2023-06-19T10:25:25.488Z,100142.00
2023-06-19T10:26:35.728Z,100135.75
2023-06-19T10:27:39.557Z,100138.28
2023-06-19T10:28:47.849Z,100132.88
2023-06-19T10:30:00.559Z,100138.09
2023-06-19T10:31:12.838Z,100137.25
2023-06-19T10:32:15.584Z,100138.09
2023-06-19T10:33:18.315Z,100135.38
2023-06-19T10:34:21.073Z,100137.06
2023-06-19T10:35:25.562Z,100130.81
2023-06-19T10:36:28.583Z,100135.03
2023-06-19T10:37:34.990Z,100130.47
2023-06-19T10:38:37.933Z,100143.84
2023-06-19T10:39:40.666Z,100131.31
2023-06-19T10:40:45.613Z,100135.72
2023-06-19T10:41:48.331Z,100140.13
2023-06-19T10:42:51.050Z,100136.41
2023-06-19T10:44:06.981Z,100130.97
2023-06-19T10:45:13.559Z,100133.50
2023-06-19T10:46:16.388Z,100135.19
2023-06-19T10:47:19.348Z,100134.19
2023-06-19T10:48:24.643Z,100130.59
2023-06-19T10:49:27.366Z,100131.28
2023-06-19T10:50:30.716Z,100126.72
2023-06-19T10:51:38.381Z,100133.63
2023-06-19T10:52:45.565Z,100127.19
2023-06-19T10:53:48.292Z,100138.84
2023-06-19T10:54:58.362Z,100134.97
2023-06-19T10:56:02.836Z,100136.66
2023-06-19T10:57:06.377Z,100129.38
2023-06-19T10:58:09.103Z,100137.31
2023-06-19T10:59:15.420Z,100143.38
2023-06-19T11:00:26.431Z,100133.41
2023-06-19T11:01:40.659Z,100121.34
2023-06-19T11:02:44.957Z,100127.63
2023-06-19T11:03:48.212Z,100130.13
2023-06-19T11:04:53.773Z,100132.66
2023-06-19T11:05:56.587Z,100123.53
2023-06-19T11:07:06.579Z,100133.16
2023-06-19T11:08:09.322Z,100125.88
2023-06-19T11:09:13.320Z,100122.13
2023-06-19T11:10:21.985Z,100118.22
2023-06-19T11:11:24.855Z,100119.09
2023-06-19T11:12:27.601Z,100122.44
2023-06-19T11:13:30.350Z,100124.97
2023-06-19T11:14:33.425Z,100115.81
2023-06-19T11:15:36.272Z,100129.00
2023-06-19T11:16:41.440Z,100117.97
2023-06-19T11:17:44.383Z,100119.66
2023-06-19T11:18:47.150Z,100122.00
2023-06-19T11:19:53.351Z,100113.88
2023-06-19T11:20:56.092Z,100118.09
2023-06-19T11:21:58.916Z,100116.03
2023-06-19T11:23:02.462Z,100118.56
2023-06-19T11:24:13.940Z,100116.50
2023-06-19T11:25:16.734Z,100123.44
2023-06-19T11:26:19.856Z,100117.84
2023-06-19T11:27:29.850Z,100117.66
2023-06-19T11:28:33.288Z,100117.44
2023-06-19T11:29:36.540Z,100116.25
2023-06-19T11:30:39.310Z,100114.25
2023-06-19T11:31:42.052Z,100113.00
2023-06-19T11:32:46.084Z,100108.44
2023-06-19T11:33:59.800Z,100111.81
2023-06-19T11:35:08.834Z,100100.59
2023-06-19T11:36:11.698Z,100107.69
2023-06-19T11:37:15.887Z,100108.38
2023-06-19T11:38:19.691Z,100108.00
2023-06-19T11:39:23.496Z,100105.09
2023-06-19T11:40:27.195Z,100111.00
2023-06-19T11:41:30.160Z,100105.38
2023-06-19T11:42:34.204Z,100106.88
2023-06-19T11:43:37.008Z,100101.28
2023-06-19T11:45:01.148Z,100103.63
2023-06-19T11:46:05.713Z,100095.28
2023-06-19T11:47:11.758Z,100097.66
2023-06-19T11:48:14.524Z,100101.00
2023-06-19T11:49:21.492Z,100099.78
2023-06-19T11:50:29.101Z,100098.59
2023-06-19T11:51:32.049Z,100098.19
2023-06-19T11:52:35.174Z,100104.06
2023-06-19T11:53:38.489Z,100100.38
2023-06-19T11:54:41.222Z,100105.22
2023-06-19T11:55:44.995Z,100101.31
2023-06-19T11:56:50.672Z,100101.94
2023-06-19T11:57:53.388Z,100098.00
2023-06-19T11:58:56.384Z,100104.09
2023-06-19T11:59:59.112Z,100102.91
2023-06-19T12:01:01.845Z,100107.09
2023-06-19T12:02:05.030Z,100098.59
2023-06-19T12:03:07.939Z,100097.38
2023-06-19T12:04:11.066Z,100101.56
2023-06-19T12:05:14.227Z,100094.09
2023-06-19T12:06:19.050Z,100098.09
2023-06-19T12:07:21.815Z,100093.31
2023-06-19T12:08:24.595Z,100094.63
2023-06-19T12:09:27.334Z,100096.13
2023-06-19T12:10:31.104Z,100098.47
2023-06-19T12:11:33.908Z,100092.66
2023-06-19T12:12:38.763Z,100096.03